Blowing Sand Mountains, Nevada Weather observations

Data are for observation ending at time listed.
 Day   Time    Ave.   Ave.  Ave.  Vector   Max.   Stn.    Total    Solar   Ave.  
  of    of     Air    Rel.  Wind   Wind    Wind   Baro.  Precip.   Rad.    Soil  
Year   Day     Temp.  Hum.  Speed  Dir.    Gust   Pres.                    Temp. 
2016   (PST)    F      %     mph   deg.    mph     mb.     in.     W/m2     F   
------------------------------------------------------------------------------
 208   17:30   99.8     4    6.4    32     15.3    879.4     0.00     321     78.9
 208   17:40   99.6     4    6.3    54     13.6    879.4     0.00     287     78.9
 208   17:50   99.3     4    8.6    34     12.2    879.4     0.00     252     79.1
 208   18:00   99.1     4    7.7    28     11.0    879.5     0.00     222     79.1
 208   18:10   98.8     4    8.5    24     11.9    879.5     0.00     191     79.1
 208   18:20   98.4     4    8.0    12     10.8    879.5     0.00     158     79.2
 208   18:30   97.7     5    6.9    10     10.0    879.5     0.00     122     79.3
 208   18:40   97.2     5    5.4    22      8.6    879.5     0.00      81     79.4
 208   18:50   96.0     5    4.9    12      6.8    879.6     0.00      44     79.5
 208   19:00   94.5     5    5.7    20      7.5    879.6     0.00      20     79.6
 208   19:10   92.5     6    4.5    16      5.6    879.7     0.00       9     79.7
 208   19:20   90.5     6    4.2    29      5.4    879.7     0.00       4     79.8
 208   19:30   88.8     6    4.0    42      5.9    879.8     0.00       1     79.8
 208   19:40   88.2     6    5.0    37      6.3    879.9     0.00       0     79.9
 208   19:50   87.0     7    3.2   356      6.8    880.1     0.00       0     80.0
 208   20:00   84.8     7    0.0     0      0.0    880.2     0.00       0     80.0
 208   20:10   84.5     7    1.4   222      5.3    880.4     0.00       0     80.1
 208   20:20   80.7     8    0.0   110      0.4    880.5     0.00       0     80.2
 208   20:30   80.4     8    0.0     0      0.0    880.6     0.00       0     80.2
 208   20:40   77.5     8    2.4   140      4.2    880.7     0.00       0     80.2
 208   20:50   77.6     8    3.9   116      9.1    880.8     0.00       0     80.2
 208   21:00   82.2     7    0.2   341      2.7    880.9     0.00       0     80.3
 208   21:10   78.3     8    2.4   246      5.0    880.9     0.00       0     80.3
 208   21:20   84.5     8    9.5   339     14.5    881.1     0.00       0     80.4
 208   21:30   88.5     7   10.4   343     14.0    881.1     0.00       0     80.4
 208   21:40   88.8     7   10.2   347     14.2    881.1     0.00       0     80.4
 208   21:50   88.6     7    8.4   348     12.6    881.1     0.00       0     80.4
 208   22:00   88.3     7    6.6   348     11.0    881.2     0.00       0     80.5
 208   22:10   85.2     7    3.3   227      6.1    881.3     0.00       0     80.5
 208   22:20   79.2     8    3.7   165      7.2    881.3     0.00       0     80.5
 208   22:30   78.1     9    4.0   167      7.2    881.3     0.00       0     80.5
 208   22:40   75.1     9    3.9   181      6.1    881.2     0.00       0     80.5
 208   22:50   72.8    10    2.9   158      4.6    881.3     0.00       0     80.5
 208   23:00   73.3    11    0.0     0      0.0    881.4     0.00       0     80.6
 208   23:10   74.4    10    0.0     0      0.0    881.4     0.00       0     80.5
 208   23:20   73.4    11    0.0     0      0.0    881.4     0.00       0     80.5
 208   23:30   73.3    11    0.0     0      0.0    881.4     0.00       0     80.6
 208   23:40   73.5    11    0.5   241      2.8    881.4     0.00       0     80.5
 208   23:50   70.9    12    0.0     0      0.0    881.5     0.00       0     80.5
 209    0:00   73.2    12    0.0     0      0.0    881.5     0.00       0     80.5
 209    0:10   71.6    11    3.4   166      6.1    881.5     0.00       0     80.5
 209    0:20   70.6    11    5.5   156      7.7    881.5     0.00       0     80.5
 209    0:30   70.0    11    6.2   147      8.6    881.5     0.00       0     80.4
 209    0:40   70.4    11    2.7   140      6.6    881.5     0.00       0     80.4
 209    0:50   69.5    12    0.9   133      4.9    881.5     0.00       0     80.4
 209    1:00   70.2    12    1.7   129      3.3    881.6     0.00       0     80.4
 209    1:10   69.3    12    1.3   142      5.3    881.8     0.00       0     80.4
 209    1:20   66.9    13    2.6   128      4.8    881.8     0.00       0     80.4
 209    1:30   66.1    13    2.9   137      4.5    881.9     0.00       0     80.3
 209    1:40   65.9    13    1.2   122      4.6    881.9     0.00       0     80.3
 209    1:50   64.5    14    0.9   329      5.0    882.0     0.00       0     80.2
 209    2:00   63.6    14    0.3    25      4.5    882.0     0.00       0     80.2
 209    2:10   61.5    15    0.3    88      3.7    882.1     0.00       0     80.2
 209    2:20   60.5    15    1.9   124      4.5    882.1     0.00       0     80.2
 209    2:30   61.1    15    0.0   203      0.1    882.2     0.00       0     80.1
 209    2:40   60.1    16    2.0   102      5.2    882.2     0.00       0     80.1
 209    2:50   59.8    16    2.7   132      5.1    882.3     0.00       0     80.0
 209    3:00   60.0    16    0.0     0      0.0    882.3     0.00       0     80.0
 209    3:10   59.8    16    3.1   153      5.3    882.4     0.00       0     80.0
 209    3:20   62.5    15    1.7    81      4.6    882.5     0.00       0     79.9
 209    3:30   60.2    16    3.5   317      6.9    882.6     0.00       0     79.9
 209    3:40   59.8    16    0.7   315      3.3    882.5     0.00       0     79.8
 209    3:50   59.2    16    0.6   178      4.4    882.5     0.00       0     79.8
 209    4:00   56.5    18    2.3   184      4.5    882.7     0.00       0     79.7
 209    4:10   55.9    18    0.0     0      0.0    882.7     0.00       0     79.7
 209    4:20   57.1    18    0.0     0      0.0    882.7     0.00       0     79.6
 209    4:30   56.3    18    0.0     0      0.0    882.8     0.00       0     79.6
 209    4:40   55.3    18    0.0     0      0.0    882.9     0.00       1     79.5
 209    4:50   56.8    18    1.1   148      4.5    882.9     0.00       2     79.5
 209    5:00   56.0    18    0.0     0      0.0    883.1     0.00       6     79.4
 209    5:10   54.6    19    0.0     0      0.0    883.1     0.00      13     79.4
 209    5:20   55.1    19    1.6   173      4.3    883.2     0.00      31     79.3
 209    5:30   56.1    18    0.6   169      2.6    883.3     0.00      59     79.2
 209    5:40   57.8    17    0.3    15      1.9    883.4     0.00      93     79.1
 209    5:50   57.7    17    0.0     0      0.0    883.5     0.00     127     79.1
 209    6:00   59.2    16    0.0     0      0.0    883.6     0.00     160     79.0
 209    6:10   60.7    15    0.0     0      0.0    883.6     0.00     193     78.9
 209    6:20   62.8    15    0.0     0      0.0    883.5     0.00     227     78.9
 209    6:30   66.7    13    0.0     0      0.0    883.5     0.00     262     78.8
 209    6:40   69.2    12    0.0   223      0.9    883.6     0.00     298     78.7
 209    6:50   67.8    13    0.0     0      0.0    883.6     0.00     334     78.7
 209    7:00   70.9    12    0.0     0      0.0    883.6     0.00     371     78.6
 209    7:10   75.7    10    0.0     0      0.0    883.6     0.00     410     78.5
 209    7:20   79.1     9    0.0     0      0.0    883.6     0.00     447     78.4
 209    7:30   81.6     9    0.0   314      1.6    883.6     0.00     484     78.4
 209    7:40   79.9     9    0.0   257      0.7    883.6     0.00     521     78.3
 209    7:50   79.1    10    0.0   260      0.1    883.6     0.00     558     78.2
 209    8:00   80.7     9    0.0     0      0.0    883.6     0.00     594     78.2
 209    8:10   83.2     9    0.0     0      0.0    883.5     0.00     629     78.1
 209    8:20   86.8     8    0.0     0      0.0    883.5     0.00     665     78.0
 209    8:30   88.7     7    0.3    87      2.5    883.4     0.00     699     78.0
 209    8:40   89.8     7    0.1    44      2.5    883.4     0.00     734     78.0
 209    8:50   90.2     7    0.3   252      4.2    883.3     0.00     766     77.9
 209    9:00   91.6     6    0.4   276      2.9    883.2     0.00     794     77.8
 209    9:10   94.2     6    1.4    79      5.0    883.2     0.00     822     77.8
 209    9:20   95.0     6    0.7    86      3.6    883.2     0.00     850     77.7
 209    9:30   94.7     6    0.8   101      5.7    883.1     0.00     878     77.6
 209    9:40   95.7     6    0.9    21      5.2    883.1     0.00     904     77.6
 209    9:50   95.2     5    1.4   360      6.4    883.0     0.00     931     77.5
 209   10:00   96.1     5    1.9    30      6.3    883.0     0.00     955     77.5
 209   10:10   96.0     5    3.2   339      6.2    883.0     0.00     977     77.5
 209   10:20   96.3     5    1.5   297      5.0    882.9     0.00     994     77.5
 209   10:30   98.2     4    3.4   357      7.8    882.8     0.00    1010     77.4
 209   10:40   96.6     4    2.0   319      6.1    882.7     0.00    1025     77.4
 209   10:50   98.4     4    1.7    52      6.4    882.6     0.00    1040     77.3
 209   11:00   98.6     4    1.9   224      9.3    882.5     0.00    1051     77.3
 209   11:10   99.8     4    4.9   227     13.8    882.3     0.00    1063     77.3
 209   11:20   98.3     4    5.1   278      9.7    882.3     0.00    1072     77.3
 209   11:30   98.6     4    4.3   253      9.1    882.2     0.00    1079     77.3
 209   11:40   99.1     4    3.6   306      9.3    882.1     0.00    1085     77.2
 209   11:50   99.9     3    5.8   246     10.6    882.0     0.00    1088     77.3
 209   12:00  100.0     4    5.1   307     11.0    882.0     0.00    1088     77.3
 209   12:10  100.0     3    3.0   316      7.5    881.9     0.00    1086     77.3
 209   12:20  100.7     3    3.2   276      8.3    881.7     0.00    1084     77.3
 209   12:30  101.7     3    5.1   353     11.3    881.6     0.00    1082     77.3
 209   12:40  101.9     3    5.8   347      9.7    881.4     0.00    1078     77.3
 209   12:50  101.8     3    5.4   302     10.4    881.3     0.00    1072     77.4
 209   13:00  101.8     3    2.9   270      7.8    881.2     0.00    1064     77.4
 209   13:10  102.5     3    3.8   261     11.0    881.1     0.00    1055     77.4
 209   13:20  102.4     3    6.1   273     10.0    880.9     0.00    1042     77.5
 209   13:30  102.5     4    3.3   305      6.9    880.8     0.00    1028     77.5
 209   13:40  103.0     3    2.9   324      5.6    880.7     0.00    1010     77.6
 209   13:50  104.5     3    5.1   159      8.7    880.5     0.00     992     77.6
 209   14:00  105.4     3    2.0   167      8.9    880.5     0.00     978     77.6
 209   14:10  103.6     3    8.3    20     15.7    880.4     0.00     957     77.7
 209   14:20  103.7     3    6.7     3     10.5    880.2     0.00     930     77.8
 209   14:30  103.8     4    5.4   351     10.0    880.2     0.00     903     77.8
 209   14:40  103.9     4    4.0   310      8.2    880.0     0.00     881     77.9
 209   14:50  104.2     4    5.3   325     10.1    879.9     0.00     855     77.9
 209   15:00  104.3     4    8.5    19     15.3    879.8     0.00     822     78.0
 209   15:10  104.5     4   10.2     3     25.4    879.8     0.00     790     78.1
 209   15:20  104.3     4   11.0    14     18.1    879.7     0.00     761     78.2
 209   15:30  103.8     4    8.0   358     19.7    879.7     0.00     729     78.2
 209   15:40  103.6     4   10.0     1     16.3    879.6     0.00     699     78.3
 209   15:50  104.0     4    8.7    24     13.6    879.5     0.00     669     78.4
 209   16:00  104.0     4   10.3     7     15.9    879.5     0.00     636     78.5
 209   16:10  103.7     4    9.3    12     15.6    879.5     0.00     600     78.5
 209   16:20  103.3     4   10.6     9     17.4    879.4     0.00     564     78.6
 209   16:30  103.1     4    9.5    28     15.4    879.4     0.00     526     78.7
 209   16:40  103.2     4    8.7     4     14.8    879.3     0.00     477     78.8
 209   16:50  103.2     4    8.5    11     14.2    879.2     0.00     456     78.9
 209   17:00  103.4     4    8.4    14     15.3    879.1     0.00     420     79.0
 209   17:10  102.9     4   10.1     0     15.6    879.1     0.00     389     79.1
 209   17:20  102.7     4    8.9     4     16.7    879.1     0.00     355     79.2

Return to Blowing Sand Mountains graphs page.


Western Regional Climate Center,wrcc@dri.edu